createdAt,value
2022-08-31T00:02:53.701Z,12.60
2022-08-31T00:07:16.144Z,12.60
2022-08-31T00:11:38.341Z,12.50
2022-08-31T00:16:00.436Z,12.50
2022-08-31T00:20:33.251Z,12.50
2022-08-31T00:24:56.481Z,12.50
2022-08-31T00:29:19.002Z,12.40
2022-08-31T00:33:41.552Z,12.40
2022-08-31T00:38:06.760Z,12.40
2022-08-31T00:42:28.722Z,12.40
2022-08-31T00:46:50.861Z,12.60
2022-08-31T00:51:18.486Z,12.70
2022-08-31T00:55:41.320Z,12.80
2022-08-31T01:00:10.880Z,12.80
2022-08-31T01:04:34.160Z,12.80
2022-08-31T01:08:59.101Z,12.70
2022-08-31T01:13:21.702Z,12.70
2022-08-31T01:17:46.460Z,12.70
2022-08-31T01:22:39.820Z,12.70
2022-08-31T01:27:05.020Z,12.60
2022-08-31T01:31:37.735Z,12.60
2022-08-31T01:36:01.900Z,12.60
2022-08-31T01:40:55.280Z,12.60
2022-08-31T01:45:17.660Z,12.50
2022-08-31T01:49:39.901Z,12.40
2022-08-31T01:54:02.260Z,12.30
2022-08-31T01:58:24.781Z,12.20
2022-08-31T02:03:22.502Z,12.10
2022-08-31T02:07:44.500Z,12.00
2022-08-31T02:12:06.922Z,12.10
2022-08-31T02:16:29.084Z,12.00
2022-08-31T02:20:51.062Z,12.00
2022-08-31T02:25:13.360Z,12.00
2022-08-31T02:29:35.981Z,12.00
2022-08-31T02:33:58.120Z,11.90
2022-08-31T02:38:20.360Z,11.90
2022-08-31T02:42:53.181Z,11.90
2022-08-31T02:47:20.000Z,12.00
2022-08-31T02:52:11.261Z,11.90
2022-08-31T02:56:33.580Z,11.90
2022-08-31T03:00:55.740Z,11.90
2022-08-31T03:05:19.221Z,11.80
2022-08-31T03:09:41.061Z,11.80
2022-08-31T03:14:05.980Z,11.70
2022-08-31T03:18:28.100Z,11.60
2022-08-31T03:22:50.961Z,11.60
2022-08-31T03:27:14.701Z,11.60
2022-08-31T03:31:37.270Z,11.60
2022-08-31T03:35:59.722Z,11.60
2022-08-31T03:40:21.788Z,11.50
2022-08-31T03:44:44.001Z,11.50
2022-08-31T03:49:14.140Z,11.50
2022-08-31T03:53:44.981Z,11.50
2022-08-31T03:58:13.201Z,11.50
2022-08-31T04:02:39.763Z,11.50
2022-08-31T04:07:22.440Z,11.50
2022-08-31T04:12:03.380Z,11.60
2022-08-31T04:16:51.200Z,11.70
2022-08-31T04:21:44.544Z,11.70
2022-08-31T04:26:19.281Z,11.70
2022-08-31T04:30:43.429Z,11.60
2022-08-31T04:35:09.860Z,11.60
2022-08-31T04:39:34.145Z,11.60
2022-08-31T04:44:00.177Z,11.70
2022-08-31T04:48:22.340Z,11.70
2022-08-31T04:52:57.299Z,11.90
2022-08-31T04:57:25.481Z,11.90
2022-08-31T05:01:47.740Z,12.00
2022-08-31T05:06:34.660Z,12.10
2022-08-31T05:10:57.260Z,12.20
2022-08-31T05:15:19.581Z,12.20
2022-08-31T05:19:41.721Z,12.30
2022-08-31T05:24:09.320Z,12.50
2022-08-31T05:28:35.440Z,12.70
2022-08-31T05:32:57.723Z,12.80
2022-08-31T05:37:20.042Z,12.80
2022-08-31T05:41:47.418Z,12.90
2022-08-31T05:46:13.993Z,13.00
2022-08-31T05:50:37.980Z,13.10
2022-08-31T05:55:00.920Z,13.20
2022-08-31T05:59:22.840Z,13.40
2022-08-31T06:03:46.920Z,13.40
2022-08-31T06:08:13.216Z,13.50
2022-08-31T06:12:39.200Z,13.50
2022-08-31T06:17:01.440Z,13.60
2022-08-31T06:21:33.780Z,13.70
2022-08-31T06:26:15.921Z,13.90
2022-08-31T06:30:54.885Z,14.10
2022-08-31T06:35:17.961Z,14.40
2022-08-31T06:39:55.036Z,15.00
2022-08-31T06:44:30.260Z,15.30
2022-08-31T06:49:04.460Z,15.40
2022-08-31T06:53:29.001Z,15.60
2022-08-31T06:58:09.940Z,15.70
2022-08-31T07:02:35.648Z,16.10
2022-08-31T07:06:58.361Z,16.60
2022-08-31T07:11:44.088Z,16.40
2022-08-31T07:16:12.168Z,16.70
2022-08-31T07:20:35.080Z,17.20
2022-08-31T07:24:57.600Z,17.80
2022-08-31T07:29:23.248Z,18.40
2022-08-31T07:33:45.500Z,18.60
2022-08-31T07:38:26.340Z,18.40
2022-08-31T07:42:49.979Z,17.90
2022-08-31T07:47:14.399Z,17.80
2022-08-31T07:51:50.479Z,18.20
2022-08-31T07:56:23.466Z,18.10
2022-08-31T08:00:53.800Z,18.30
2022-08-31T08:05:26.909Z,18.90
2022-08-31T08:10:14.606Z,18.90
2022-08-31T08:14:47.320Z,19.10
2022-08-31T08:19:24.341Z,19.60
2022-08-31T08:23:46.544Z,20.10
2022-08-31T08:28:39.196Z,20.50
2022-08-31T08:33:05.120Z,20.20
2022-08-31T08:37:56.634Z,20.90
2022-08-31T08:42:16.221Z,22.10
2022-08-31T08:47:38.624Z,24.20
2022-08-31T08:52:12.000Z,25.60
2022-08-31T08:56:42.217Z,27.30
2022-08-31T09:01:05.649Z,26.60
2022-08-31T09:06:09.841Z,26.60
2022-08-31T09:10:43.124Z,28.30
2022-08-31T09:15:37.863Z,29.90
2022-08-31T09:20:06.781Z,27.90
2022-08-31T09:24:33.136Z,26.40
2022-08-31T09:29:31.321Z,26.90
2022-08-31T09:33:53.120Z,28.00
2022-08-31T09:38:39.709Z,26.70
2022-08-31T09:43:25.470Z,25.50
2022-08-31T09:48:01.461Z,25.80
2022-08-31T09:52:47.380Z,27.10
2022-08-31T09:57:11.641Z,26.90
2022-08-31T10:01:45.225Z,25.30
2022-08-31T10:06:41.862Z,24.10
2022-08-31T10:11:18.060Z,23.60
2022-08-31T10:15:59.722Z,24.00
2022-08-31T10:20:30.886Z,23.00
2022-08-31T10:25:38.520Z,22.60
2022-08-31T10:30:27.723Z,22.60
2022-08-31T10:35:06.361Z,23.00
2022-08-31T10:39:41.801Z,23.60
2022-08-31T10:44:26.961Z,22.90
2022-08-31T10:48:58.240Z,23.00
2022-08-31T10:53:50.781Z,22.40
2022-08-31T10:58:24.863Z,22.20
2022-08-31T11:03:22.760Z,22.40
2022-08-31T11:08:05.674Z,22.20
2022-08-31T11:12:42.679Z,22.40
2022-08-31T11:17:26.160Z,22.80
2022-08-31T11:22:37.680Z,23.00
2022-08-31T11:27:23.240Z,23.20
2022-08-31T11:31:46.552Z,23.00
2022-08-31T11:36:10.480Z,22.30
2022-08-31T11:40:45.196Z,22.40
2022-08-31T11:45:33.257Z,22.40
2022-08-31T11:50:05.725Z,21.80
2022-08-31T11:54:27.837Z,22.10
2022-08-31T11:59:30.360Z,22.40
2022-08-31T12:04:03.682Z,23.10
2022-08-31T12:08:32.680Z,22.40
2022-08-31T12:13:28.521Z,22.40
2022-08-31T12:18:45.760Z,22.60
2022-08-31T12:23:37.475Z,22.10
2022-08-31T12:28:18.901Z,21.70
2022-08-31T12:33:16.889Z,21.60
2022-08-31T12:37:41.020Z,21.90
2022-08-31T12:42:10.400Z,21.90
2022-08-31T12:46:37.741Z,22.20
2022-08-31T12:51:10.269Z,22.90
2022-08-31T12:55:55.114Z,22.40
2022-08-31T13:00:43.943Z,22.10
2022-08-31T13:05:23.881Z,22.10
2022-08-31T13:09:46.219Z,22.20
2022-08-31T13:14:28.452Z,22.30
2022-08-31T13:19:03.161Z,22.50
2022-08-31T13:23:41.438Z,22.40
2022-08-31T13:28:13.860Z,22.80
2022-08-31T13:32:35.780Z,23.10
2022-08-31T13:36:59.862Z,22.10
2022-08-31T13:41:31.161Z,21.90
2022-08-31T13:46:00.173Z,22.30
2022-08-31T13:50:25.499Z,22.10
2022-08-31T13:55:32.668Z,22.00
2022-08-31T13:59:57.121Z,22.30
2022-08-31T14:04:49.178Z,22.20
2022-08-31T14:09:19.041Z,22.40
2022-08-31T14:13:50.522Z,22.50
2022-08-31T14:18:25.443Z,22.30
2022-08-31T14:22:50.121Z,21.90
2022-08-31T14:27:14.021Z,21.30
2022-08-31T14:31:52.415Z,21.30
2022-08-31T14:36:14.941Z,21.60
2022-08-31T14:40:37.609Z,21.40
2022-08-31T14:45:06.062Z,21.30
2022-08-31T14:49:35.421Z,21.50
2022-08-31T14:53:58.573Z,21.40
2022-08-31T14:58:27.760Z,21.20
2022-08-31T15:02:56.393Z,21.00
2022-08-31T15:07:19.998Z,20.80
2022-08-31T15:11:43.080Z,20.90
2022-08-31T15:16:13.448Z,20.80
2022-08-31T15:20:40.058Z,20.70
2022-08-31T15:25:02.531Z,20.80
2022-08-31T15:29:29.198Z,20.90
2022-08-31T15:33:57.575Z,20.70
2022-08-31T15:38:19.640Z,20.50
2022-08-31T15:42:43.759Z,20.40
2022-08-31T15:47:26.800Z,20.20
2022-08-31T15:51:54.236Z,20.00
2022-08-31T15:56:17.047Z,20.10
2022-08-31T16:00:42.174Z,19.90
2022-08-31T16:05:05.285Z,19.70
2022-08-31T16:09:27.943Z,19.60
2022-08-31T16:13:54.845Z,19.60
2022-08-31T16:18:18.940Z,19.60
2022-08-31T16:22:43.385Z,19.40
2022-08-31T16:27:11.726Z,19.20
2022-08-31T16:31:35.156Z,19.10
2022-08-31T16:35:57.525Z,18.90
2022-08-31T16:40:19.789Z,18.80
2022-08-31T16:44:47.033Z,18.70
2022-08-31T16:49:29.623Z,18.60
2022-08-31T16:53:55.264Z,18.50
2022-08-31T16:58:29.795Z,18.50
2022-08-31T17:02:59.968Z,18.40
2022-08-31T17:07:25.283Z,18.30
2022-08-31T17:11:54.310Z,18.10
2022-08-31T17:16:24.090Z,18.00
2022-08-31T17:20:46.827Z,17.90
2022-08-31T17:25:09.903Z,17.70
2022-08-31T17:29:37.768Z,17.60
2022-08-31T17:34:06.443Z,17.50
2022-08-31T17:38:29.544Z,17.30
2022-08-31T17:42:54.996Z,17.20
2022-08-31T17:47:22.325Z,17.10
2022-08-31T17:51:46.143Z,17.00
2022-08-31T17:56:08.543Z,16.90
2022-08-31T18:00:32.990Z,16.80
2022-08-31T18:04:55.618Z,16.60
2022-08-31T18:09:21.246Z,16.50
2022-08-31T18:13:44.235Z,16.40
2022-08-31T18:18:06.671Z,16.40
2022-08-31T18:22:30.463Z,16.20
2022-08-31T18:26:53.623Z,16.20
2022-08-31T18:31:17.991Z,16.10
2022-08-31T18:35:46.963Z,16.00
2022-08-31T18:40:28.505Z,16.00
2022-08-31T18:45:09.481Z,16.00
2022-08-31T18:49:38.964Z,16.00
2022-08-31T18:54:01.464Z,16.00
2022-08-31T18:58:23.579Z,15.90
2022-08-31T19:02:46.284Z,15.80
2022-08-31T19:07:08.136Z,15.80
2022-08-31T19:11:31.544Z,15.70
2022-08-31T19:15:59.178Z,15.70
2022-08-31T19:20:23.123Z,15.60
2022-08-31T19:24:45.909Z,15.50
2022-08-31T19:29:14.464Z,15.40
2022-08-31T19:33:37.425Z,15.40
2022-08-31T19:37:59.444Z,15.30
2022-08-31T19:42:39.783Z,15.10
2022-08-31T19:47:03.605Z,15.10
2022-08-31T19:51:27.687Z,15.00
2022-08-31T19:55:56.164Z,14.90
2022-08-31T20:00:18.664Z,14.80
2022-08-31T20:04:41.897Z,14.70
2022-08-31T20:09:06.334Z,14.60
2022-08-31T20:13:29.165Z,14.50
2022-08-31T20:17:57.544Z,14.50
2022-08-31T20:22:21.587Z,14.40
2022-08-31T20:26:51.524Z,14.30
2022-08-31T20:31:14.872Z,14.20
2022-08-31T20:35:47.702Z,14.10
2022-08-31T20:40:17.432Z,14.00
2022-08-31T20:44:40.024Z,13.90
2022-08-31T20:49:21.098Z,13.90
2022-08-31T20:53:44.632Z,13.80
2022-08-31T20:58:07.001Z,13.70
2022-08-31T21:02:31.923Z,13.70
2022-08-31T21:06:54.259Z,13.60
2022-08-31T21:11:20.699Z,13.50
2022-08-31T21:15:46.017Z,13.40
2022-08-31T21:20:08.879Z,13.40
2022-08-31T21:24:34.026Z,13.30
2022-08-31T21:28:56.939Z,13.30
2022-08-31T21:33:19.528Z,13.20
2022-08-31T21:37:42.000Z,13.10
2022-08-31T21:42:04.500Z,13.10
2022-08-31T21:46:28.817Z,13.10
2022-08-31T21:50:50.683Z,13.20
2022-08-31T21:55:13.841Z,13.30
2022-08-31T21:59:37.220Z,13.40
2022-08-31T22:04:00.782Z,13.40
2022-08-31T22:08:26.239Z,13.50
2022-08-31T22:12:48.173Z,13.60
2022-08-31T22:17:10.942Z,13.60
2022-08-31T22:21:35.349Z,13.60
2022-08-31T22:25:57.581Z,13.60
2022-08-31T22:30:20.559Z,13.50
2022-08-31T22:34:43.640Z,13.50
2022-08-31T22:39:14.978Z,13.40
2022-08-31T22:43:41.719Z,13.40
2022-08-31T22:48:04.279Z,13.30
2022-08-31T22:52:26.199Z,13.30
2022-08-31T22:56:49.459Z,13.30
2022-08-31T23:01:27.711Z,13.30
2022-08-31T23:05:52.140Z,13.30
2022-08-31T23:10:18.766Z,13.40
2022-08-31T23:14:42.362Z,13.20
2022-08-31T23:19:12.554Z,13.20
2022-08-31T23:23:34.699Z,13.20
2022-08-31T23:27:56.579Z,13.10
2022-08-31T23:32:22.159Z,13.00
2022-08-31T23:36:49.040Z,12.90
2022-08-31T23:41:13.713Z,12.90
2022-08-31T23:45:38.219Z,12.80
2022-08-31T23:50:04.925Z,12.80
2022-08-31T23:54:27.079Z,12.80
2022-08-31T23:58:48.999Z,12.70
